sensor_id;sensor_type;location;lat;lon;timestamp;pressure;altitude;pressure_sealevel;temperature;humidity
55990;BME280;41875;55.806;38.082;2022-10-31T00:01:32;97563.81;;;2.31;48.06
55990;BME280;41875;55.806;38.082;2022-10-31T00:04:02;97544.59;;;1.87;49.17
55990;BME280;41875;55.806;38.082;2022-10-31T00:06:30;97553.88;;;2.08;48.03
55990;BME280;41875;55.806;38.082;2022-10-31T00:09:01;97528.09;;;1.60;48.79
55990;BME280;41875;55.806;38.082;2022-10-31T00:11:30;97543.50;;;2.51;46.83
55990;BME280;41875;55.806;38.082;2022-10-31T00:13:58;97554.00;;;2.24;47.62
55990;BME280;41875;55.806;38.082;2022-10-31T00:16:27;97547.44;;;2.20;47.34
55990;BME280;41875;55.806;38.082;2022-10-31T00:18:59;97551.81;;;2.46;46.79
55990;BME280;41875;55.806;38.082;2022-10-31T00:21:29;97532.88;;;2.18;48.34
55990;BME280;41875;55.806;38.082;2022-10-31T00:23:58;97532.56;;;2.21;48.06
55990;BME280;41875;55.806;38.082;2022-10-31T00:26:30;97539.09;;;2.51;46.74
55990;BME280;41875;55.806;38.082;2022-10-31T00:28:59;97542.78;;;2.40;47.62
55990;BME280;41875;55.806;38.082;2022-10-31T00:31:28;97523.72;;;1.87;48.58
55990;BME280;41875;55.806;38.082;2022-10-31T00:33:58;97529.41;;;2.43;47.09
55990;BME280;41875;55.806;38.082;2022-10-31T00:36:27;97537.28;;;2.17;47.96
55990;BME280;41875;55.806;38.082;2022-10-31T00:38:55;97549.75;;;2.05;49.28
55990;BME280;41875;55.806;38.082;2022-10-31T00:41:24;97526.56;;;2.63;46.42
55990;BME280;41875;55.806;38.082;2022-10-31T00:43:52;97549.66;;;2.15;49.12
55990;BME280;41875;55.806;38.082;2022-10-31T00:46:21;97538.75;;;1.67;50.08
55990;BME280;41875;55.806;38.082;2022-10-31T00:48:50;97521.19;;;1.51;49.31
55990;BME280;41875;55.806;38.082;2022-10-31T00:51:20;97513.88;;;2.07;47.64
55990;BME280;41875;55.806;38.082;2022-10-31T00:53:48;97535.31;;;2.11;48.31
55990;BME280;41875;55.806;38.082;2022-10-31T00:56:17;97527.69;;;2.00;48.31
55990;BME280;41875;55.806;38.082;2022-10-31T00:58:45;97519.31;;;2.14;48.56
55990;BME280;41875;55.806;38.082;2022-10-31T01:01:14;97514.41;;;2.11;48.51
55990;BME280;41875;55.806;38.082;2022-10-31T01:03:42;97547.38;;;1.67;49.48
55990;BME280;41875;55.806;38.082;2022-10-31T01:06:13;97532.47;;;1.60;50.72
55990;BME280;41875;55.806;38.082;2022-10-31T01:08:43;97552.25;;;1.62;49.85
55990;BME280;41875;55.806;38.082;2022-10-31T01:11:16;97533.47;;;1.59;50.76
55990;BME280;41875;55.806;38.082;2022-10-31T01:13:46;97543.59;;;1.80;50.42
55990;BME280;41875;55.806;38.082;2022-10-31T01:16:17;97533.19;;;2.15;49.50
55990;BME280;41875;55.806;38.082;2022-10-31T01:18:46;97525.56;;;1.50;51.61
55990;BME280;41875;55.806;38.082;2022-10-31T01:21:16;97528.88;;;1.79;50.86
55990;BME280;41875;55.806;38.082;2022-10-31T01:23:50;97535.78;;;1.44;52.87
55990;BME280;41875;55.806;38.082;2022-10-31T01:26:20;97545.84;;;1.57;53.33
55990;BME280;41875;55.806;38.082;2022-10-31T01:28:51;97525.94;;;1.37;52.57
55990;BME280;41875;55.806;38.082;2022-10-31T01:31:21;97550.31;;;1.91;52.30
55990;BME280;41875;55.806;38.082;2022-10-31T01:33:51;97559.13;;;1.63;53.90
55990;BME280;41875;55.806;38.082;2022-10-31T01:36:21;97590.38;;;1.09;57.66
55990;BME280;41875;55.806;38.082;2022-10-31T01:38:53;97547.75;;;1.00;58.38
55990;BME280;41875;55.806;38.082;2022-10-31T01:41:26;97562.72;;;0.42;61.12
55990;BME280;41875;55.806;38.082;2022-10-31T01:43:57;97564.63;;;0.78;61.01
55990;BME280;41875;55.806;38.082;2022-10-31T01:46:30;97571.50;;;0.97;60.64
55990;BME280;41875;55.806;38.082;2022-10-31T01:49:02;97564.09;;;0.74;61.09
55990;BME280;41875;55.806;38.082;2022-10-31T01:51:37;97564.81;;;0.95;60.43
55990;BME280;41875;55.806;38.082;2022-10-31T01:54:12;97559.09;;;1.27;60.79
55990;BME280;41875;55.806;38.082;2022-10-31T01:56:47;97552.63;;;1.13;60.90
55990;BME280;41875;55.806;38.082;2022-10-31T01:59:19;97559.53;;;1.04;62.19
55990;BME280;41875;55.806;38.082;2022-10-31T02:01:50;97550.81;;;1.14;61.54
55990;BME280;41875;55.806;38.082;2022-10-31T02:04:19;97540.09;;;0.71;62.45
55990;BME280;41875;55.806;38.082;2022-10-31T02:06:53;97555.44;;;0.74;63.28
55990;BME280;41875;55.806;38.082;2022-10-31T02:09:26;97543.28;;;0.93;62.83
55990;BME280;41875;55.806;38.082;2022-10-31T02:11:57;97567.97;;;0.88;63.11
55990;BME280;41875;55.806;38.082;2022-10-31T02:14:29;97559.63;;;0.85;63.92
55990;BME280;41875;55.806;38.082;2022-10-31T02:16:58;97540.28;;;0.59;65.24
55990;BME280;41875;55.806;38.082;2022-10-31T02:19:32;97567.03;;;0.62;65.25
55990;BME280;41875;55.806;38.082;2022-10-31T02:22:09;97548.47;;;0.74;65.10
55990;BME280;41875;55.806;38.082;2022-10-31T02:24:53;97548.97;;;0.50;65.94
55990;BME280;41875;55.806;38.082;2022-10-31T02:27:39;97553.00;;;0.72;67.04
55990;BME280;41875;55.806;38.082;2022-10-31T02:30:16;97564.69;;;1.32;64.04
55990;BME280;41875;55.806;38.082;2022-10-31T02:32:57;97538.63;;;0.86;65.65
55990;BME280;41875;55.806;38.082;2022-10-31T02:35:39;97569.53;;;0.81;65.80
55990;BME280;41875;55.806;38.082;2022-10-31T02:38:18;97562.50;;;0.26;67.94
55990;BME280;41875;55.806;38.082;2022-10-31T02:40:56;97554.28;;;0.21;69.49
55990;BME280;41875;55.806;38.082;2022-10-31T02:43:42;97553.63;;;0.09;70.36
55990;BME280;41875;55.806;38.082;2022-10-31T02:46:16;97556.59;;;0.89;68.54
55990;BME280;41875;55.806;38.082;2022-10-31T02:48:51;97561.34;;;0.38;69.36
55990;BME280;41875;55.806;38.082;2022-10-31T02:51:21;97552.72;;;0.75;69.19
55990;BME280;41875;55.806;38.082;2022-10-31T02:53:49;97546.56;;;0.67;69.30
55990;BME280;41875;55.806;38.082;2022-10-31T02:56:19;97559.41;;;0.50;69.94
55990;BME280;41875;55.806;38.082;2022-10-31T02:58:50;97550.66;;;0.41;70.35
55990;BME280;41875;55.806;38.082;2022-10-31T03:01:31;97567.47;;;0.09;71.70
55990;BME280;41875;55.806;38.082;2022-10-31T03:04:21;97574.22;;;0.40;70.93
55990;BME280;41875;55.806;38.082;2022-10-31T03:06:59;97563.97;;;0.66;71.26
55990;BME280;41875;55.806;38.082;2022-10-31T03:09:36;97568.38;;;0.28;72.14
55990;BME280;41875;55.806;38.082;2022-10-31T03:12:10;97565.47;;;0.31;73.41
55990;BME280;41875;55.806;38.082;2022-10-31T03:14:48;97570.56;;;0.33;74.01
55990;BME280;41875;55.806;38.082;2022-10-31T03:17:26;97554.09;;;0.32;73.34
55990;BME280;41875;55.806;38.082;2022-10-31T03:20:02;97555.19;;;-0.28;74.48
55990;BME280;41875;55.806;38.082;2022-10-31T03:22:33;97573.81;;;-0.03;74.96
55990;BME280;41875;55.806;38.082;2022-10-31T03:25:04;97556.94;;;0.39;73.79
55990;BME280;41875;55.806;38.082;2022-10-31T03:27:36;97555.81;;;0.13;73.42
55990;BME280;41875;55.806;38.082;2022-10-31T03:30:07;97576.09;;;0.57;73.10
55990;BME280;41875;55.806;38.082;2022-10-31T03:32:53;97553.44;;;0.30;71.76
55990;BME280;41875;55.806;38.082;2022-10-31T03:35:26;97581.50;;;0.74;70.59
55990;BME280;41875;55.806;38.082;2022-10-31T03:37:56;97570.84;;;0.67;71.39
55990;BME280;41875;55.806;38.082;2022-10-31T03:40:36;97560.06;;;0.14;71.14
55990;BME280;41875;55.806;38.082;2022-10-31T03:43:09;97569.31;;;-0.21;71.47
55990;BME280;41875;55.806;38.082;2022-10-31T03:45:41;97563.28;;;0.36;70.26
55990;BME280;41875;55.806;38.082;2022-10-31T03:48:13;97564.34;;;0.81;68.50
55990;BME280;41875;55.806;38.082;2022-10-31T03:50:50;97555.97;;;0.50;68.78
55990;BME280;41875;55.806;38.082;2022-10-31T03:53:25;97567.00;;;0.34;69.51
55990;BME280;41875;55.806;38.082;2022-10-31T03:55:59;97563.00;;;0.39;68.30
55990;BME280;41875;55.806;38.082;2022-10-31T03:58:35;97579.16;;;0.43;67.72
55990;BME280;41875;55.806;38.082;2022-10-31T04:01:08;97571.63;;;0.40;68.00
55990;BME280;41875;55.806;38.082;2022-10-31T04:03:39;97572.31;;;0.70;67.64
55990;BME280;41875;55.806;38.082;2022-10-31T04:06:17;97583.19;;;0.65;68.16
55990;BME280;41875;55.806;38.082;2022-10-31T04:08:49;97572.22;;;0.62;67.77
55990;BME280;41875;55.806;38.082;2022-10-31T04:11:23;97570.84;;;0.29;68.78
55990;BME280;41875;55.806;38.082;2022-10-31T04:14:24;97596.72;;;0.69;68.40
55990;BME280;41875;55.806;38.082;2022-10-31T04:16:55;97578.91;;;0.36;68.61
55990;BME280;41875;55.806;38.082;2022-10-31T04:19:32;97588.34;;;0.37;70.13
55990;BME280;41875;55.806;38.082;2022-10-31T04:22:02;97574.59;;;0.55;68.46
55990;BME280;41875;55.806;38.082;2022-10-31T04:24:31;97587.16;;;0.22;70.25
55990;BME280;41875;55.806;38.082;2022-10-31T04:26:59;97592.56;;;0.86;68.20
55990;BME280;41875;55.806;38.082;2022-10-31T04:29:29;97596.25;;;0.55;69.30
55990;BME280;41875;55.806;38.082;2022-10-31T04:31:57;97604.50;;;0.51;69.20
55990;BME280;41875;55.806;38.082;2022-10-31T04:34:26;97600.22;;;0.87;67.51
55990;BME280;41875;55.806;38.082;2022-10-31T04:36:55;97604.94;;;0.36;69.34
55990;BME280;41875;55.806;38.082;2022-10-31T04:39:24;97602.88;;;0.40;68.32
55990;BME280;41875;55.806;38.082;2022-10-31T04:42:13;97598.38;;;0.32;69.57
55990;BME280;41875;55.806;38.082;2022-10-31T04:44:41;97606.84;;;0.82;68.45
55990;BME280;41875;55.806;38.082;2022-10-31T04:47:10;97630.47;;;0.33;69.04
55990;BME280;41875;55.806;38.082;2022-10-31T04:49:38;97609.38;;;0.73;68.71
55990;BME280;41875;55.806;38.082;2022-10-31T04:52:08;97609.22;;;0.18;70.86
55990;BME280;41875;55.806;38.082;2022-10-31T04:54:41;97626.44;;;0.58;69.70
55990;BME280;41875;55.806;38.082;2022-10-31T04:57:29;97602.31;;;0.46;69.32
55990;BME280;41875;55.806;38.082;2022-10-31T05:00:01;97615.25;;;0.38;69.80
55990;BME280;41875;55.806;38.082;2022-10-31T05:02:29;97626.22;;;0.79;69.82
55990;BME280;41875;55.806;38.082;2022-10-31T05:04:58;97635.34;;;0.83;69.71
55990;BME280;41875;55.806;38.082;2022-10-31T05:07:28;97634.22;;;0.96;68.75
55990;BME280;41875;55.806;38.082;2022-10-31T05:09:58;97631.78;;;0.84;69.17
55990;BME280;41875;55.806;38.082;2022-10-31T05:12:26;97654.84;;;0.41;71.62
55990;BME280;41875;55.806;38.082;2022-10-31T05:15:07;97643.22;;;0.36;70.56
55990;BME280;41875;55.806;38.082;2022-10-31T05:17:56;97656.56;;;0.60;70.14
55990;BME280;41875;55.806;38.082;2022-10-31T05:20:43;97668.19;;;1.14;68.40
55990;BME280;41875;55.806;38.082;2022-10-31T05:23:16;97673.91;;;1.17;67.27
55990;BME280;41875;55.806;38.082;2022-10-31T05:25:49;97674.06;;;0.88;68.60
55990;BME280;41875;55.806;38.082;2022-10-31T05:28:20;97703.06;;;0.45;70.59
55990;BME280;41875;55.806;38.082;2022-10-31T05:30:49;97677.72;;;0.95;69.07
55990;BME280;41875;55.806;38.082;2022-10-31T05:33:20;97703.75;;;1.05;68.57
55990;BME280;41875;55.806;38.082;2022-10-31T05:36:05;97684.06;;;0.83;69.33
55990;BME280;41875;55.806;38.082;2022-10-31T05:38:55;97705.03;;;0.91;68.55
55990;BME280;41875;55.806;38.082;2022-10-31T05:41:29;97697.81;;;1.13;68.91
55990;BME280;41875;55.806;38.082;2022-10-31T05:44:05;97719.81;;;1.38;68.05
55990;BME280;41875;55.806;38.082;2022-10-31T05:46:46;97718.00;;;1.11;69.16
55990;BME280;41875;55.806;38.082;2022-10-31T05:49:34;97721.34;;;1.31;68.45
55990;BME280;41875;55.806;38.082;2022-10-31T05:52:21;97729.03;;;1.04;69.08
55990;BME280;41875;55.806;38.082;2022-10-31T05:55:03;97723.09;;;1.12;68.45
55990;BME280;41875;55.806;38.082;2022-10-31T05:57:34;97737.69;;;1.33;68.09
55990;BME280;41875;55.806;38.082;2022-10-31T06:00:04;97744.94;;;1.67;67.29
55990;BME280;41875;55.806;38.082;2022-10-31T06:02:47;97743.59;;;1.35;67.80
55990;BME280;41875;55.806;38.082;2022-10-31T06:05:24;97749.97;;;1.50;67.34
55990;BME280;41875;55.806;38.082;2022-10-31T06:07:54;97765.78;;;1.77;66.50
55990;BME280;41875;55.806;38.082;2022-10-31T06:10:27;97780.56;;;1.86;66.53
55990;BME280;41875;55.806;38.082;2022-10-31T06:12:57;97779.13;;;1.74;66.52
55990;BME280;41875;55.806;38.082;2022-10-31T06:15:35;97783.13;;;1.40;68.64
55990;BME280;41875;55.806;38.082;2022-10-31T06:18:06;97789.63;;;1.82;66.64
55990;BME280;41875;55.806;38.082;2022-10-31T06:20:46;97789.94;;;1.79;67.71
55990;BME280;41875;55.806;38.082;2022-10-31T06:23:15;97793.16;;;2.19;66.02
55990;BME280;41875;55.806;38.082;2022-10-31T06:25:48;97789.78;;;1.80;67.85
55990;BME280;41875;55.806;38.082;2022-10-31T06:28:19;97807.06;;;1.91;67.23
55990;BME280;41875;55.806;38.082;2022-10-31T06:30:55;97797.53;;;1.72;68.26
55990;BME280;41875;55.806;38.082;2022-10-31T06:33:23;97831.84;;;1.77;67.77
55990;BME280;41875;55.806;38.082;2022-10-31T06:35:57;97812.16;;;1.83;67.73
55990;BME280;41875;55.806;38.082;2022-10-31T06:38:26;97833.44;;;2.16;66.79
55990;BME280;41875;55.806;38.082;2022-10-31T06:40:56;97860.59;;;1.67;68.38
55990;BME280;41875;55.806;38.082;2022-10-31T06:43:28;97851.56;;;1.90;67.45
55990;BME280;41875;55.806;38.082;2022-10-31T06:46:15;97867.19;;;2.00;67.35
55990;BME280;41875;55.806;38.082;2022-10-31T06:49:02;97871.06;;;2.23;66.82
55990;BME280;41875;55.806;38.082;2022-10-31T06:51:49;97864.63;;;1.90;67.54
55990;BME280;41875;55.806;38.082;2022-10-31T06:54:18;97871.03;;;2.69;65.82
55990;BME280;41875;55.806;38.082;2022-10-31T06:56:46;97872.06;;;2.58;65.77
55990;BME280;41875;55.806;38.082;2022-10-31T06:59:16;97890.97;;;2.52;66.21
55990;BME280;41875;55.806;38.082;2022-10-31T07:02:03;97886.72;;;2.87;64.81
55990;BME280;41875;55.806;38.082;2022-10-31T07:04:33;97883.88;;;2.63;65.76
55990;BME280;41875;55.806;38.082;2022-10-31T07:07:01;97898.28;;;3.03;64.89
55990;BME280;41875;55.806;38.082;2022-10-31T07:09:30;97907.72;;;2.96;65.16
55990;BME280;41875;55.806;38.082;2022-10-31T07:12:03;97830.03;;;2.52;65.33
55990;BME280;41875;55.806;38.082;2022-10-31T07:14:38;97901.97;;;2.56;66.50
55990;BME280;41875;55.806;38.082;2022-10-31T07:17:06;97925.13;;;2.87;65.31
55990;BME280;41875;55.806;38.082;2022-10-31T07:19:39;97924.69;;;2.73;65.48
55990;BME280;41875;55.806;38.082;2022-10-31T07:22:09;97936.34;;;2.79;65.49
55990;BME280;41875;55.806;38.082;2022-10-31T07:24:39;97920.66;;;2.61;66.08
55990;BME280;41875;55.806;38.082;2022-10-31T07:27:28;97951.63;;;2.56;66.17
55990;BME280;41875;55.806;38.082;2022-10-31T07:29:59;97956.22;;;2.72;65.57
55990;BME280;41875;55.806;38.082;2022-10-31T07:32:37;97954.88;;;2.86;65.49
55990;BME280;41875;55.806;38.082;2022-10-31T07:35:06;97987.09;;;2.58;66.58
55990;BME280;41875;55.806;38.082;2022-10-31T07:37:53;97973.41;;;2.74;65.88
55990;BME280;41875;55.806;38.082;2022-10-31T07:40:23;97976.41;;;2.52;66.85
55990;BME280;41875;55.806;38.082;2022-10-31T07:42:52;97980.63;;;2.63;66.76
55990;BME280;41875;55.806;38.082;2022-10-31T07:45:41;98001.44;;;2.82;66.00
55990;BME280;41875;55.806;38.082;2022-10-31T07:48:35;98017.81;;;3.02;65.24
55990;BME280;41875;55.806;38.082;2022-10-31T07:51:22;98022.59;;;2.89;64.70
55990;BME280;41875;55.806;38.082;2022-10-31T07:54:10;98016.28;;;2.82;65.63
55990;BME280;41875;55.806;38.082;2022-10-31T07:56:38;98025.75;;;2.65;65.27
55990;BME280;41875;55.806;38.082;2022-10-31T07:59:07;98017.97;;;2.45;66.16
55990;BME280;41875;55.806;38.082;2022-10-31T08:01:36;98040.41;;;2.76;65.19
55990;BME280;41875;55.806;38.082;2022-10-31T08:04:28;98045.25;;;2.70;65.61
55990;BME280;41875;55.806;38.082;2022-10-31T08:07:19;98037.72;;;3.31;62.97
55990;BME280;41875;55.806;38.082;2022-10-31T08:09:55;98046.09;;;3.35;62.64
55990;BME280;41875;55.806;38.082;2022-10-31T08:12:28;98056.50;;;3.27;62.58
55990;BME280;41875;55.806;38.082;2022-10-31T08:14:57;98062.03;;;3.24;62.27
55990;BME280;41875;55.806;38.082;2022-10-31T08:17:28;98049.09;;;3.40;61.95
55990;BME280;41875;55.806;38.082;2022-10-31T08:19:59;98072.50;;;3.24;61.77
55990;BME280;41875;55.806;38.082;2022-10-31T08:22:34;98079.78;;;2.74;62.99
55990;BME280;41875;55.806;38.082;2022-10-31T08:25:10;98089.91;;;3.15;62.34
55990;BME280;41875;55.806;38.082;2022-10-31T08:27:38;98088.00;;;3.07;61.76
55990;BME280;41875;55.806;38.082;2022-10-31T08:30:15;98059.66;;;3.66;60.60
55990;BME280;41875;55.806;38.082;2022-10-31T08:33:01;98080.72;;;4.01;59.95
55990;BME280;41875;55.806;38.082;2022-10-31T08:35:49;98080.56;;;3.30;60.73
55990;BME280;41875;55.806;38.082;2022-10-31T08:38:36;98090.56;;;3.63;60.63
55990;BME280;41875;55.806;38.082;2022-10-31T08:41:08;98109.69;;;3.81;60.04
55990;BME280;41875;55.806;38.082;2022-10-31T08:43:37;98109.63;;;3.73;60.06
55990;BME280;41875;55.806;38.082;2022-10-31T08:46:06;98102.22;;;3.87;59.72
55990;BME280;41875;55.806;38.082;2022-10-31T08:48:37;98106.78;;;3.66;60.06
55990;BME280;41875;55.806;38.082;2022-10-31T08:51:06;98102.25;;;3.95;58.30
55990;BME280;41875;55.806;38.082;2022-10-31T08:53:36;98113.97;;;4.53;57.12
55990;BME280;41875;55.806;38.082;2022-10-31T08:56:23;98117.31;;;3.75;59.38
55990;BME280;41875;55.806;38.082;2022-10-31T08:58:59;98110.06;;;3.87;58.99
55990;BME280;41875;55.806;38.082;2022-10-31T09:01:51;98100.75;;;3.20;59.86
55990;BME280;41875;55.806;38.082;2022-10-31T09:04:22;98136.31;;;3.95;59.80
55990;BME280;41875;55.806;38.082;2022-10-31T09:06:51;98130.31;;;4.03;58.93
55990;BME280;41875;55.806;38.082;2022-10-31T09:09:39;98147.69;;;2.94;63.20
55990;BME280;41875;55.806;38.082;2022-10-31T09:12:08;98135.81;;;3.55;61.81
55990;BME280;41875;55.806;38.082;2022-10-31T09:15:07;98143.66;;;3.91;60.86
55990;BME280;41875;55.806;38.082;2022-10-31T09:17:46;98151.47;;;3.83;60.84
55990;BME280;41875;55.806;38.082;2022-10-31T09:20:24;98143.56;;;3.47;62.70
55990;BME280;41875;55.806;38.082;2022-10-31T09:22:56;98158.66;;;3.63;61.64
55990;BME280;41875;55.806;38.082;2022-10-31T09:25:26;98169.88;;;3.73;61.24
55990;BME280;41875;55.806;38.082;2022-10-31T09:28:16;98175.72;;;3.85;61.18
55990;BME280;41875;55.806;38.082;2022-10-31T09:30:47;98185.06;;;4.06;60.48
55990;BME280;41875;55.806;38.082;2022-10-31T09:33:31;98160.19;;;3.56;59.42
55990;BME280;41875;55.806;38.082;2022-10-31T09:36:21;98177.94;;;3.34;60.20
55990;BME280;41875;55.806;38.082;2022-10-31T09:38:51;98182.53;;;4.14;58.42
55990;BME280;41875;55.806;38.082;2022-10-31T09:41:24;98187.75;;;3.32;59.83
55990;BME280;41875;55.806;38.082;2022-10-31T09:44:02;98193.56;;;3.72;58.27
55990;BME280;41875;55.806;38.082;2022-10-31T09:46:44;98192.00;;;3.61;59.45
55990;BME280;41875;55.806;38.082;2022-10-31T09:49:36;98210.66;;;2.82;62.81
55990;BME280;41875;55.806;38.082;2022-10-31T09:52:17;98205.38;;;3.58;61.35
55990;BME280;41875;55.806;38.082;2022-10-31T09:54:52;98239.06;;;3.05;62.46
55990;BME280;41875;55.806;38.082;2022-10-31T09:57:26;98250.03;;;3.56;61.10
55990;BME280;41875;55.806;38.082;2022-10-31T09:59:58;98245.84;;;2.98;62.49
55990;BME280;41875;55.806;38.082;2022-10-31T10:02:34;98281.63;;;3.45;61.87
55990;BME280;41875;55.806;38.082;2022-10-31T10:05:09;98281.59;;;3.17;62.68
55990;BME280;41875;55.806;38.082;2022-10-31T10:07:49;98264.03;;;3.65;61.14
55990;BME280;41875;55.806;38.082;2022-10-31T10:11:07;98267.31;;;3.49;61.46
55990;BME280;41875;55.806;38.082;2022-10-31T10:14:10;98264.19;;;3.35;60.48
55990;BME280;41875;55.806;38.082;2022-10-31T10:16:54;98250.00;;;3.28;60.54
55990;BME280;41875;55.806;38.082;2022-10-31T10:19:42;98312.84;;;3.18;58.84
55990;BME280;41875;55.806;38.082;2022-10-31T10:22:21;98292.44;;;3.32;58.43
55990;BME280;41875;55.806;38.082;2022-10-31T10:24:58;98256.22;;;3.27;58.13
55990;BME280;41875;55.806;38.082;2022-10-31T10:27:41;98273.59;;;3.56;57.90
55990;BME280;41875;55.806;38.082;2022-10-31T10:30:16;98304.91;;;3.86;56.62
55990;BME280;41875;55.806;38.082;2022-10-31T10:32:48;98298.16;;;3.55;56.78
55990;BME280;41875;55.806;38.082;2022-10-31T10:35:24;98283.16;;;4.21;56.27
55990;BME280;41875;55.806;38.082;2022-10-31T10:37:58;98284.81;;;4.04;56.41
55990;BME280;41875;55.806;38.082;2022-10-31T10:40:31;98286.41;;;3.87;56.17
55990;BME280;41875;55.806;38.082;2022-10-31T10:43:21;98303.50;;;4.09;56.05
55990;BME280;41875;55.806;38.082;2022-10-31T10:45:55;98278.38;;;4.17;56.67
55990;BME280;41875;55.806;38.082;2022-10-31T10:48:49;98275.91;;;4.15;55.83
55990;BME280;41875;55.806;38.082;2022-10-31T10:51:24;98281.28;;;4.14;56.26
55990;BME280;41875;55.806;38.082;2022-10-31T10:54:44;98271.06;;;3.92;57.36
55990;BME280;41875;55.806;38.082;2022-10-31T10:57:22;98283.78;;;3.87;57.74
55990;BME280;41875;55.806;38.082;2022-10-31T10:59:55;98291.06;;;3.93;58.01
55990;BME280;41875;55.806;38.082;2022-10-31T11:02:24;98285.47;;;4.06;57.93
55990;BME280;41875;55.806;38.082;2022-10-31T11:04:54;98283.59;;;3.99;58.83
55990;BME280;41875;55.806;38.082;2022-10-31T11:07:23;98269.09;;;4.04;57.71
55990;BME280;41875;55.806;38.082;2022-10-31T11:10:02;98288.19;;;4.15;58.55
55990;BME280;41875;55.806;38.082;2022-10-31T11:12:33;98282.19;;;4.40;57.51
55990;BME280;41875;55.806;38.082;2022-10-31T11:15:07;98286.03;;;3.82;58.05
55990;BME280;41875;55.806;38.082;2022-10-31T11:17:48;98276.56;;;3.71;59.42
55990;BME280;41875;55.806;38.082;2022-10-31T11:20:27;98303.69;;;4.26;59.00
55990;BME280;41875;55.806;38.082;2022-10-31T11:23:16;98282.72;;;4.44;58.23
55990;BME280;41875;55.806;38.082;2022-10-31T11:25:50;98283.41;;;4.64;57.72
55990;BME280;41875;55.806;38.082;2022-10-31T11:28:22;98284.59;;;4.34;58.31
55990;BME280;41875;55.806;38.082;2022-10-31T11:30:55;98288.66;;;4.46;57.90
55990;BME280;41875;55.806;38.082;2022-10-31T11:33:29;98264.91;;;3.84;59.52
55990;BME280;41875;55.806;38.082;2022-10-31T11:36:04;98282.81;;;3.88;59.88
55990;BME280;41875;55.806;38.082;2022-10-31T11:38:45;98294.88;;;3.81;60.03
55990;BME280;41875;55.806;38.082;2022-10-31T11:41:18;98268.38;;;3.84;59.13
55990;BME280;41875;55.806;38.082;2022-10-31T11:43:57;98311.66;;;3.78;60.27
55990;BME280;41875;55.806;38.082;2022-10-31T11:46:33;98290.19;;;3.75;59.87
55990;BME280;41875;55.806;38.082;2022-10-31T11:49:23;98258.88;;;3.17;61.62
55990;BME280;41875;55.806;38.082;2022-10-31T11:51:57;98306.75;;;3.75;61.04
55990;BME280;41875;55.806;38.082;2022-10-31T11:54:34;98319.72;;;3.95;60.21
55990;BME280;41875;55.806;38.082;2022-10-31T11:57:24;98310.38;;;3.64;61.28
55990;BME280;41875;55.806;38.082;2022-10-31T11:59:56;98314.06;;;4.00;59.64
55990;BME280;41875;55.806;38.082;2022-10-31T12:02:25;98322.56;;;3.46;62.06
55990;BME280;41875;55.806;38.082;2022-10-31T12:05:00;98311.47;;;3.24;61.81
55990;BME280;41875;55.806;38.082;2022-10-31T12:07:31;98307.53;;;4.04;59.85
55990;BME280;41875;55.806;38.082;2022-10-31T12:10:09;98303.13;;;3.48;62.01
55990;BME280;41875;55.806;38.082;2022-10-31T12:12:58;98312.00;;;3.28;62.55
55990;BME280;41875;55.806;38.082;2022-10-31T12:15:50;98293.28;;;3.60;61.29
55990;BME280;41875;55.806;38.082;2022-10-31T12:18:53;98313.97;;;3.63;62.10
55990;BME280;41875;55.806;38.082;2022-10-31T12:21:59;98313.56;;;3.58;63.38
55990;BME280;41875;55.806;38.082;2022-10-31T12:24:50;98319.72;;;3.29;64.64
55990;BME280;41875;55.806;38.082;2022-10-31T12:27:34;98339.91;;;2.80;66.82
55990;BME280;41875;55.806;38.082;2022-10-31T12:30:15;98335.88;;;2.95;66.68
55990;BME280;41875;55.806;38.082;2022-10-31T12:33:20;98321.59;;;2.60;68.07
55990;BME280;41875;55.806;38.082;2022-10-31T12:35:58;98324.50;;;2.77;67.98
55990;BME280;41875;55.806;38.082;2022-10-31T12:38:42;98307.84;;;2.58;69.40
55990;BME280;41875;55.806;38.082;2022-10-31T12:41:39;98326.81;;;2.89;69.47
55990;BME280;41875;55.806;38.082;2022-10-31T12:48:01;98322.16;;;2.54;70.39
55990;BME280;41875;55.806;38.082;2022-10-31T12:50:44;98257.06;;;2.11;70.25
55990;BME280;41875;55.806;38.082;2022-10-31T12:53:30;98342.66;;;2.78;69.43
55990;BME280;41875;55.806;38.082;2022-10-31T12:56:16;98258.41;;;1.96;71.43
55990;BME280;41875;55.806;38.082;2022-10-31T12:58:52;98372.38;;;2.48;72.22
55990;BME280;41875;55.806;38.082;2022-10-31T13:01:35;98352.28;;;2.48;72.33
55990;BME280;41875;55.806;38.082;2022-10-31T13:07:28;98309.91;;;2.64;70.17
55990;BME280;41875;55.806;38.082;2022-10-31T13:10:17;98317.06;;;2.72;69.22
55990;BME280;41875;55.806;38.082;2022-10-31T13:12:48;98375.09;;;3.25;68.86
55990;BME280;41875;55.806;38.082;2022-10-31T13:15:21;98401.44;;;3.03;68.99
55990;BME280;41875;55.806;38.082;2022-10-31T13:17:53;98339.22;;;2.78;69.34
55990;BME280;41875;55.806;38.082;2022-10-31T13:20:58;98361.22;;;2.75;69.51
55990;BME280;41875;55.806;38.082;2022-10-31T13:23:39;98382.97;;;3.15;68.22
55990;BME280;41875;55.806;38.082;2022-10-31T13:26:36;98331.34;;;2.87;68.12
55990;BME280;41875;55.806;38.082;2022-10-31T13:29:18;98372.13;;;3.10;68.20
55990;BME280;41875;55.806;38.082;2022-10-31T13:31:53;98402.13;;;3.15;68.44
55990;BME280;41875;55.806;38.082;2022-10-31T13:35:07;98371.81;;;3.03;68.00
55990;BME280;41875;55.806;38.082;2022-10-31T13:37:27;98391.78;;;3.14;68.38
55990;BME280;41875;55.806;38.082;2022-10-31T13:43:51;98337.41;;;2.68;68.29
55990;BME280;41875;55.806;38.082;2022-10-31T13:46:57;98417.94;;;3.14;69.20
55990;BME280;41875;55.806;38.082;2022-10-31T13:50:05;98400.75;;;3.21;68.00
55990;BME280;41875;55.806;38.082;2022-10-31T13:53:12;98421.84;;;3.10;69.56
55990;BME280;41875;55.806;38.082;2022-10-31T13:56:16;98438.88;;;3.04;68.97
55990;BME280;41875;55.806;38.082;2022-10-31T13:58:59;98434.88;;;3.39;68.75
55990;BME280;41875;55.806;38.082;2022-10-31T14:01:30;98415.63;;;2.81;69.87